createdAt,value
2017-11-27T00:00:23.354Z,91
2017-11-27T00:01:23.646Z,91
2017-11-27T00:02:23.355Z,91
2017-11-27T00:03:23.626Z,91
2017-11-27T00:04:23.436Z,91
2017-11-27T00:05:23.656Z,91
2017-11-27T00:06:23.190Z,91
2017-11-27T00:07:23.142Z,91
2017-11-27T00:08:23.388Z,91
2017-11-27T00:09:23.182Z,91
2017-11-27T00:10:23.410Z,91
2017-11-27T00:11:23.351Z,91
2017-11-27T00:12:23.212Z,91
2017-11-27T00:13:23.164Z,91
2017-11-27T00:14:23.407Z,91
2017-11-27T00:15:23.197Z,91
2017-11-27T00:16:23.408Z,91
2017-11-27T00:17:23.388Z,91
2017-11-27T00:18:23.224Z,91
2017-11-27T00:19:23.174Z,91
2017-11-27T00:20:23.212Z,91
2017-11-27T00:21:23.439Z,91
2017-11-27T00:22:23.433Z,91
2017-11-27T00:23:23.212Z,91
2017-11-27T00:24:23.425Z,91
2017-11-27T00:25:23.177Z,91
2017-11-27T00:26:23.261Z,91
2017-11-27T00:27:23.427Z,91
2017-11-27T00:28:23.444Z,91
2017-11-27T00:29:24.113Z,91
2017-11-27T00:30:23.688Z,91
2017-11-27T00:31:23.698Z,91
2017-11-27T00:32:23.427Z,91
2017-11-27T00:33:23.659Z,91
2017-11-27T00:34:24.143Z,91
2017-11-27T00:35:23.676Z,91
2017-11-27T00:36:23.244Z,91
2017-11-27T00:37:23.709Z,91
2017-11-27T00:38:23.758Z,91
2017-11-27T00:39:23.473Z,91
2017-11-27T00:40:25.783Z,91
2017-11-27T00:41:23.688Z,91
2017-11-27T00:42:23.311Z,91
2017-11-27T00:43:24.705Z,91
2017-11-27T00:44:23.748Z,91
2017-11-27T00:45:24.344Z,91
2017-11-27T00:46:23.953Z,91
2017-11-27T00:47:24.469Z,91
2017-11-27T00:48:23.498Z,91
2017-11-27T00:49:23.508Z,91
2017-11-27T00:50:25.372Z,91
2017-11-27T00:51:23.777Z,91
2017-11-27T00:52:23.814Z,91
2017-11-27T00:53:23.408Z,91
2017-11-27T00:54:23.484Z,91
2017-11-27T00:55:23.491Z,91
2017-11-27T00:56:23.727Z,91
2017-11-27T00:57:23.495Z,91
2017-11-27T00:58:23.286Z,91
2017-11-27T00:59:23.511Z,91
2017-11-27T01:00:23.792Z,91
2017-11-27T01:01:23.460Z,91
2017-11-27T01:02:23.472Z,91
2017-11-27T01:03:23.477Z,91
2017-11-27T01:04:23.496Z,91
2017-11-27T01:05:23.251Z,91
2017-11-27T01:06:23.340Z,91
2017-11-27T01:07:23.743Z,91
2017-11-27T01:11:41.084Z,91
2017-11-27T01:11:51.228Z,91
2017-11-27T01:12:51.178Z,91
2017-11-27T01:13:51.989Z,91
2017-11-27T01:14:51.176Z,91
2017-11-27T01:15:51.225Z,91
2017-11-27T01:16:51.451Z,91
2017-11-27T01:17:51.456Z,91
2017-11-27T01:18:50.987Z,91
2017-11-27T01:19:51.000Z,91
2017-11-27T01:20:51.453Z,92
2017-11-27T01:21:51.498Z,92
2017-11-27T01:22:50.982Z,92
2017-11-27T01:23:51.186Z,92
2017-11-27T01:24:51.206Z,92
2017-11-27T01:25:51.783Z,92
2017-11-27T01:26:51.502Z,92
2017-11-27T01:27:51.057Z,92
2017-11-27T01:28:51.201Z,92
2017-11-27T01:29:52.103Z,92
2017-11-27T01:30:51.178Z,92
2017-11-27T01:31:51.332Z,92
2017-11-27T01:32:51.493Z,92
2017-11-27T01:33:51.051Z,92
2017-11-27T01:34:51.001Z,92
2017-11-27T01:35:51.261Z,92
2017-11-27T01:36:51.247Z,92
2017-11-27T01:37:51.840Z,92
2017-11-27T01:38:51.238Z,92
2017-11-27T01:39:51.261Z,92
2017-11-27T01:40:51.048Z,92
2017-11-27T01:41:51.281Z,92
2017-11-27T01:42:51.247Z,92
2017-11-27T01:43:51.513Z,92
2017-11-27T01:44:51.233Z,92
2017-11-27T01:45:51.267Z,92
2017-11-27T01:46:51.391Z,92
2017-11-27T01:47:51.841Z,92
2017-11-27T01:48:51.553Z,92
2017-11-27T01:49:51.280Z,92
2017-11-27T01:50:51.514Z,92
2017-11-27T01:51:51.875Z,92
2017-11-27T01:52:51.256Z,92
2017-11-27T01:53:51.049Z,92
2017-11-27T01:54:51.022Z,92
2017-11-27T01:55:51.290Z,92
2017-11-27T01:56:51.242Z,92
2017-11-27T01:57:51.540Z,92
2017-11-27T01:58:51.613Z,92
2017-11-27T01:59:51.056Z,92
2017-11-27T02:00:51.247Z,93
2017-11-27T02:01:51.567Z,93
2017-11-27T02:02:51.020Z,93
2017-11-27T02:03:51.284Z,93
2017-11-27T02:04:51.136Z,93
2017-11-27T02:05:51.355Z,93
2017-11-27T02:06:51.541Z,93
2017-11-27T02:07:51.316Z,93
2017-11-27T02:08:51.053Z,93
2017-11-27T02:09:51.615Z,93
2017-11-27T02:10:51.345Z,93
2017-11-27T02:11:51.359Z,93
2017-11-27T02:12:51.237Z,93
2017-11-27T02:13:51.614Z,93
2017-11-27T02:14:51.106Z,93
2017-11-27T02:15:51.299Z,93
2017-11-27T02:16:51.253Z,93
2017-11-27T02:17:51.125Z,93
2017-11-27T02:18:51.595Z,93
2017-11-27T02:19:51.197Z,93
2017-11-27T02:20:51.318Z,93
2017-11-27T02:21:51.336Z,93
2017-11-27T02:22:51.282Z,93
2017-11-27T02:23:51.341Z,93
2017-11-27T02:24:51.573Z,93
2017-11-27T02:25:51.303Z,93
2017-11-27T02:26:51.309Z,93
2017-11-27T02:27:51.603Z,93
2017-11-27T02:28:51.339Z,93
2017-11-27T02:29:51.377Z,93
2017-11-27T02:30:51.538Z,93
2017-11-27T02:31:51.173Z,93
2017-11-27T02:32:53.629Z,93
2017-11-27T02:33:51.349Z,93
2017-11-27T02:34:51.578Z,93
2017-11-27T02:35:51.423Z,93
2017-11-27T02:36:51.320Z,93
2017-11-27T02:37:51.593Z,93
2017-11-27T02:38:51.608Z,93
2017-11-27T02:39:51.365Z,93
2017-11-27T02:40:51.645Z,93
2017-11-27T02:41:51.117Z,93
2017-11-27T02:42:51.123Z,93
2017-11-27T02:43:51.367Z,93
2017-11-27T02:44:51.627Z,93
2017-11-27T02:45:51.205Z,93
2017-11-27T02:46:51.345Z,93
2017-11-27T02:47:51.161Z,93
2017-11-27T02:48:51.665Z,93
2017-11-27T02:49:51.129Z,93
2017-11-27T02:50:51.144Z,93
2017-11-27T02:51:51.938Z,93
2017-11-27T02:52:51.625Z,93
2017-11-27T02:53:51.343Z,93
2017-11-27T02:54:51.380Z,93
2017-11-27T02:55:51.420Z,93
2017-11-27T02:56:51.640Z,93
2017-11-27T02:57:51.147Z,93
2017-11-27T02:58:51.187Z,93
2017-11-27T02:59:51.132Z,93
2017-11-27T03:00:51.164Z,93
2017-11-27T03:01:52.012Z,93
2017-11-27T03:02:51.162Z,93
2017-11-27T03:03:52.037Z,93
2017-11-27T03:04:51.665Z,93
2017-11-27T03:05:51.391Z,93
2017-11-27T03:06:51.469Z,93
2017-11-27T03:07:51.682Z,93
2017-11-27T03:08:51.389Z,93
2017-11-27T03:09:51.426Z,93
2017-11-27T03:10:51.437Z,93
2017-11-27T03:11:52.107Z,93
2017-11-27T03:12:51.372Z,93
2017-11-27T03:13:51.408Z,93
2017-11-27T03:14:51.183Z,93
2017-11-27T03:15:51.393Z,93
2017-11-27T03:16:51.404Z,93
2017-11-27T03:17:51.641Z,93
2017-11-27T03:18:51.420Z,93
2017-11-27T03:19:51.209Z,93
2017-11-27T03:20:51.405Z,93
2017-11-27T03:21:52.011Z,93
2017-11-27T03:22:51.394Z,93
2017-11-27T03:23:52.078Z,93
2017-11-27T03:24:51.407Z,93
2017-11-27T03:25:51.686Z,93
2017-11-27T03:26:51.263Z,93
2017-11-27T03:27:52.035Z,93
2017-11-27T03:28:51.454Z,93
2017-11-27T03:29:51.726Z,93
2017-11-27T03:30:51.752Z,93
2017-11-27T03:31:51.372Z,93
2017-11-27T03:32:51.220Z,93
2017-11-27T03:33:51.737Z,93
2017-11-27T03:34:51.731Z,93
2017-11-27T03:35:51.430Z,93
2017-11-27T03:36:51.460Z,93
2017-11-27T03:37:51.470Z,93
2017-11-27T03:38:51.425Z,93
2017-11-27T03:39:51.691Z,93
2017-11-27T03:45:10.086Z,93
2017-11-27T03:45:21.949Z,93
2017-11-27T03:46:22.168Z,93
2017-11-27T03:47:22.123Z,93
2017-11-27T03:48:21.987Z,93
2017-11-27T03:49:22.152Z,93
2017-11-27T03:50:22.427Z,93
2017-11-27T03:51:22.165Z,93
2017-11-27T03:52:22.510Z,93
2017-11-27T03:53:26.405Z,93
2017-11-27T03:54:22.458Z,93
2017-11-27T03:55:22.004Z,93
2017-11-27T03:56:21.957Z,93
2017-11-27T03:57:21.965Z,93
2017-11-27T03:58:22.189Z,93
2017-11-27T03:59:22.006Z,93
2017-11-27T04:00:22.486Z,93
2017-11-27T04:01:22.181Z,93
2017-11-27T04:02:21.944Z,93
2017-11-27T04:03:22.469Z,93
2017-11-27T04:04:22.442Z,93
2017-11-27T04:05:22.228Z,93
2017-11-27T04:06:22.472Z,93
2017-11-27T04:07:22.221Z,93
2017-11-27T04:08:21.967Z,93
2017-11-27T04:09:22.196Z,93
2017-11-27T04:10:22.467Z,93
2017-11-27T04:11:22.032Z,93
2017-11-27T04:12:22.225Z,93
2017-11-27T04:13:22.224Z,93
2017-11-27T04:14:22.008Z,93
2017-11-27T04:15:22.178Z,93
2017-11-27T04:16:22.023Z,93
2017-11-27T04:17:22.199Z,93
2017-11-27T04:18:22.219Z,93
2017-11-27T04:19:22.196Z,93
2017-11-27T04:20:22.170Z,93
2017-11-27T04:21:22.247Z,93
2017-11-27T04:22:22.286Z,93
2017-11-27T04:23:22.251Z,92
2017-11-27T04:24:22.235Z,92
2017-11-27T04:25:22.035Z,92
2017-11-27T04:26:22.552Z,93
2017-11-27T04:27:22.293Z,93
2017-11-27T04:28:22.243Z,92
2017-11-27T04:29:22.044Z,92
2017-11-27T04:30:24.327Z,92
2017-11-27T04:31:22.513Z,93
2017-11-27T04:32:22.244Z,93
2017-11-27T04:33:22.538Z,93
2017-11-27T04:34:22.256Z,93
2017-11-27T04:35:22.537Z,93
2017-11-27T04:36:22.513Z,93
2017-11-27T04:37:22.251Z,93
2017-11-27T04:38:23.097Z,93
2017-11-27T04:39:22.502Z,93
2017-11-27T04:40:22.641Z,93
2017-11-27T04:41:22.509Z,93
2017-11-27T04:42:22.202Z,93
2017-11-27T04:43:22.522Z,93
2017-11-27T04:44:22.087Z,93
2017-11-27T04:45:22.549Z,93
2017-11-27T04:46:22.538Z,93
2017-11-27T04:47:22.290Z,93
2017-11-27T04:48:22.840Z,93
2017-11-27T04:49:22.286Z,93
2017-11-27T04:50:22.597Z,93
2017-11-27T04:51:22.237Z,92
2017-11-27T04:52:22.225Z,92
2017-11-27T04:53:22.570Z,92
2017-11-27T04:54:22.345Z,92
2017-11-27T04:55:22.254Z,92
2017-11-27T04:56:22.062Z,92
2017-11-27T04:57:22.312Z,92
2017-11-27T04:58:22.298Z,92
2017-11-27T04:59:22.272Z,92
2017-11-27T05:00:22.564Z,92
2017-11-27T05:01:22.071Z,92
2017-11-27T05:02:22.591Z,92
2017-11-27T05:03:22.240Z,92
2017-11-27T05:04:22.349Z,92
2017-11-27T05:05:22.606Z,92
2017-11-27T05:06:22.573Z,92
2017-11-27T05:07:22.554Z,92
2017-11-27T05:08:22.291Z,92
2017-11-27T05:09:22.327Z,92
2017-11-27T05:10:22.368Z,92
2017-11-27T05:11:22.138Z,92
2017-11-27T05:12:22.608Z,92
2017-11-27T05:13:22.592Z,92
2017-11-27T05:14:22.579Z,92
2017-11-27T05:15:22.603Z,92
2017-11-27T05:16:22.595Z,92
2017-11-27T05:17:22.420Z,92
2017-11-27T05:18:22.122Z,92
2017-11-27T05:19:22.361Z,92
2017-11-27T05:20:22.336Z,92
2017-11-27T05:21:22.637Z,92
2017-11-27T05:22:22.609Z,91
2017-11-27T05:23:22.375Z,91
2017-11-27T05:24:22.126Z,91
2017-11-27T05:25:22.346Z,91
2017-11-27T05:26:22.313Z,91
2017-11-27T05:27:22.648Z,91
2017-11-27T05:28:22.336Z,91
2017-11-27T05:29:22.338Z,90
2017-11-27T05:30:22.373Z,90
2017-11-27T05:31:22.589Z,90
2017-11-27T05:32:22.360Z,90
2017-11-27T05:33:22.327Z,90
2017-11-27T05:34:22.634Z,90
2017-11-27T05:35:22.667Z,90
2017-11-27T05:36:22.174Z,90
2017-11-27T05:37:22.647Z,90
2017-11-27T05:38:22.472Z,90
2017-11-27T05:39:22.908Z,90
2017-11-27T05:40:22.178Z,90
2017-11-27T05:41:22.637Z,90
2017-11-27T05:42:22.650Z,90
2017-11-27T05:43:22.695Z,90
2017-11-27T05:44:22.675Z,90
2017-11-27T05:45:22.213Z,90
2017-11-27T05:46:22.272Z,90
2017-11-27T05:47:22.690Z,90
2017-11-27T05:48:22.444Z,90
2017-11-27T05:49:22.482Z,90
2017-11-27T05:50:24.440Z,90
2017-11-27T05:51:22.378Z,90
2017-11-27T05:52:22.697Z,90
2017-11-27T05:53:22.230Z,90
2017-11-27T05:54:22.739Z,90
2017-11-27T05:55:22.160Z,90
2017-11-27T05:56:22.688Z,90
2017-11-27T05:57:22.414Z,90
2017-11-27T05:58:22.728Z,90
2017-11-27T05:59:22.211Z,90
2017-11-27T06:00:22.443Z,90
2017-11-27T06:01:22.420Z,90
2017-11-27T06:02:22.708Z,90
2017-11-27T06:03:22.193Z,90
2017-11-27T06:04:22.684Z,90
2017-11-27T06:05:22.417Z,90
2017-11-27T06:06:22.700Z,90
2017-11-27T06:07:22.409Z,90
2017-11-27T06:08:22.361Z,90
2017-11-27T06:09:22.669Z,90
2017-11-27T06:10:22.698Z,90
2017-11-27T06:11:22.461Z,90
2017-11-27T06:12:22.659Z,90
2017-11-27T06:13:22.221Z,90
2017-11-27T06:14:22.727Z,90
2017-11-27T06:15:22.443Z,90
2017-11-27T06:16:22.235Z,90
2017-11-27T06:17:22.504Z,90
2017-11-27T06:18:23.259Z,90
2017-11-27T06:19:22.481Z,90
2017-11-27T06:20:22.448Z,90
2017-11-27T06:21:22.466Z,90
2017-11-27T06:22:22.464Z,90
2017-11-27T06:23:22.284Z,89
2017-11-27T06:24:22.228Z,89
2017-11-27T06:25:22.534Z,89
2017-11-27T06:26:22.765Z,89
2017-11-27T06:27:22.238Z,89
2017-11-27T06:28:22.509Z,89
2017-11-27T06:29:22.312Z,89
2017-11-27T06:30:22.504Z,89
2017-11-27T06:31:22.354Z,89
2017-11-27T06:32:22.434Z,89
2017-11-27T06:33:22.759Z,89
2017-11-27T06:34:22.744Z,89
2017-11-27T06:35:22.793Z,90
2017-11-27T06:36:22.717Z,90
2017-11-27T06:37:22.732Z,90
2017-11-27T06:38:23.057Z,90
2017-11-27T06:39:22.300Z,90
2017-11-27T06:40:22.825Z,90
2017-11-27T06:41:22.755Z,90
2017-11-27T06:42:22.485Z,90
2017-11-27T06:43:22.528Z,90
2017-11-27T06:44:22.568Z,90
2017-11-27T06:45:22.809Z,90
2017-11-27T06:46:22.457Z,90
2017-11-27T06:47:22.525Z,90
2017-11-27T06:48:23.025Z,90
2017-11-27T06:49:22.246Z,90
2017-11-27T06:50:22.555Z,90
2017-11-27T06:51:22.323Z,90
2017-11-27T06:52:22.375Z,90
2017-11-27T06:53:23.613Z,90
2017-11-27T06:54:22.372Z,90
2017-11-27T06:55:23.525Z,90
2017-11-27T06:56:22.817Z,90
2017-11-27T06:57:22.598Z,90
2017-11-27T06:58:22.533Z,90
2017-11-27T06:59:22.755Z,90
2017-11-27T07:00:22.535Z,90
2017-11-27T07:01:22.575Z,91
2017-11-27T07:02:22.809Z,91
2017-11-27T07:03:22.754Z,91
2017-11-27T07:04:22.557Z,91
2017-11-27T07:05:24.146Z,91
2017-11-27T07:06:23.129Z,92
2017-11-27T07:07:22.546Z,92
2017-11-27T07:08:22.569Z,92
2017-11-27T07:09:22.556Z,92
2017-11-27T07:10:22.563Z,92
2017-11-27T07:11:22.521Z,92
2017-11-27T07:12:23.277Z,92
2017-11-27T07:13:22.762Z,92
2017-11-27T07:14:22.702Z,92
2017-11-27T07:15:22.487Z,92
2017-11-27T07:16:22.554Z,92
2017-11-27T07:17:23.513Z,92
2017-11-27T07:18:22.667Z,92
2017-11-27T07:19:22.367Z,92
2017-11-27T07:20:22.632Z,92
2017-11-27T07:21:22.851Z,92
2017-11-27T07:22:22.867Z,92
2017-11-27T07:23:22.595Z,92
2017-11-27T07:24:22.550Z,93
2017-11-27T07:25:23.048Z,93
2017-11-27T07:26:22.428Z,93
2017-11-27T07:27:22.607Z,93
2017-11-27T07:28:22.894Z,93
2017-11-27T07:29:22.543Z,93
2017-11-27T07:30:22.925Z,93
2017-11-27T07:31:22.841Z,94
2017-11-27T07:32:22.485Z,94
2017-11-27T07:33:22.437Z,94
2017-11-27T07:34:22.423Z,94
2017-11-27T07:35:22.891Z,94
2017-11-27T07:36:22.445Z,94
2017-11-27T07:37:22.612Z,94
2017-11-27T07:38:22.695Z,94
2017-11-27T07:39:22.579Z,94
2017-11-27T07:40:22.945Z,94
2017-11-27T07:41:22.350Z,94
2017-11-27T07:42:22.582Z,94
2017-11-27T07:43:22.884Z,94
2017-11-27T07:44:23.291Z,94
2017-11-27T07:45:22.633Z,94
2017-11-27T07:46:22.617Z,94
2017-11-27T07:47:22.613Z,94
2017-11-27T07:48:22.941Z,94
2017-11-27T07:49:22.586Z,94
2017-11-27T07:50:22.480Z,94
2017-11-27T07:51:22.437Z,94
2017-11-27T07:52:22.484Z,94
2017-11-27T07:53:22.976Z,94
2017-11-27T07:54:22.700Z,94
2017-11-27T07:55:22.606Z,94
2017-11-27T07:56:22.691Z,94
2017-11-27T07:57:22.644Z,94
2017-11-27T07:58:23.293Z,94
2017-11-27T07:59:22.635Z,94
2017-11-27T08:00:22.711Z,94
2017-11-27T08:01:22.877Z,94
2017-11-27T08:02:22.673Z,94
2017-11-27T08:03:22.689Z,94
2017-11-27T08:04:24.204Z,94
2017-11-27T08:05:23.618Z,94
2017-11-27T08:06:22.964Z,94
2017-11-27T08:07:22.882Z,94
2017-11-27T08:08:24.923Z,94
2017-11-27T08:09:22.993Z,94
2017-11-27T08:10:23.026Z,94
2017-11-27T08:11:26.267Z,94
2017-11-27T08:12:22.685Z,94
2017-11-27T08:13:22.701Z,94
2017-11-27T08:14:22.933Z,94
2017-11-27T08:15:23.015Z,94
2017-11-27T08:16:22.789Z,94
2017-11-27T08:17:22.669Z,94
2017-11-27T08:18:22.743Z,94
2017-11-27T08:19:22.645Z,94
2017-11-27T08:20:23.027Z,94
2017-11-27T08:21:22.719Z,94
2017-11-27T08:22:22.790Z,94
2017-11-27T08:23:26.224Z,94
2017-11-27T08:24:28.137Z,94
2017-11-27T08:25:22.950Z,93
2017-11-27T08:26:24.051Z,93
2017-11-27T08:27:22.659Z,93
2017-11-27T08:28:22.774Z,93
2017-11-27T08:29:22.713Z,93
2017-11-27T08:30:22.542Z,93
2017-11-27T08:31:22.681Z,93
2017-11-27T08:32:22.545Z,93
2017-11-27T08:33:22.692Z,93
2017-11-27T08:34:22.731Z,93
2017-11-27T08:35:22.708Z,93
2017-11-27T08:36:22.988Z,93
2017-11-27T08:37:22.822Z,93
2017-11-27T08:38:22.739Z,93
2017-11-27T08:39:22.665Z,93
2017-11-27T08:40:22.757Z,93
2017-11-27T08:41:22.712Z,93
2017-11-27T08:42:22.578Z,93
2017-11-27T08:43:22.995Z,93
2017-11-27T08:44:22.774Z,93
2017-11-27T08:45:22.655Z,92
2017-11-27T08:46:22.513Z,92
2017-11-27T08:47:22.474Z,92
2017-11-27T08:48:22.804Z,92
2017-11-27T08:49:22.708Z,92
2017-11-27T08:50:23.050Z,92
2017-11-27T08:51:22.944Z,92
2017-11-27T08:52:22.795Z,92
2017-11-27T08:53:23.000Z,92
2017-11-27T08:54:23.042Z,92
2017-11-27T08:55:22.699Z,91
2017-11-27T08:56:22.771Z,91
2017-11-27T08:57:22.530Z,91
2017-11-27T08:58:22.592Z,91
2017-11-27T08:59:22.808Z,91
2017-11-27T09:00:23.014Z,91
2017-11-27T09:01:22.961Z,91
2017-11-27T09:02:22.705Z,91
2017-11-27T09:03:23.025Z,91
2017-11-27T09:04:22.543Z,91
2017-11-27T09:05:22.759Z,91
2017-11-27T09:06:22.751Z,91
2017-11-27T09:07:22.653Z,91
2017-11-27T09:08:22.575Z,90
2017-11-27T09:09:22.744Z,90
2017-11-27T09:10:23.549Z,90
2017-11-27T09:11:22.743Z,90
2017-11-27T09:12:22.603Z,90
2017-11-27T09:13:22.501Z,90
2017-11-27T09:14:22.860Z,90
2017-11-27T09:15:22.705Z,90
2017-11-27T09:16:22.609Z,90
2017-11-27T09:17:22.776Z,90
2017-11-27T09:18:23.324Z,89
2017-11-27T09:19:22.544Z,89
2017-11-27T09:20:22.813Z,89
2017-11-27T09:21:22.803Z,90
2017-11-27T09:22:22.786Z,90
2017-11-27T09:23:22.705Z,90
2017-11-27T09:24:22.862Z,90
2017-11-27T09:25:22.794Z,90
2017-11-27T09:26:23.062Z,89
2017-11-27T09:27:23.419Z,89
2017-11-27T09:28:23.033Z,89
2017-11-27T09:29:22.851Z,89
2017-11-27T09:30:22.835Z,89
2017-11-27T09:31:23.028Z,89
2017-11-27T09:32:23.026Z,89
2017-11-27T09:33:22.545Z,89
2017-11-27T09:34:22.763Z,89
2017-11-27T09:35:22.793Z,89
2017-11-27T09:36:22.584Z,89
2017-11-27T09:37:22.774Z,89
2017-11-27T09:38:22.788Z,89
2017-11-27T09:39:23.118Z,89
2017-11-27T09:40:22.820Z,89
2017-11-27T09:41:22.561Z,89
2017-11-27T09:42:23.069Z,89
2017-11-27T09:43:22.817Z,89
2017-11-27T09:44:22.846Z,89
2017-11-27T09:45:23.069Z,89
2017-11-27T09:46:22.802Z,88
2017-11-27T09:47:22.616Z,88
2017-11-27T09:48:22.811Z,88
2017-11-27T09:49:22.604Z,89
2017-11-27T09:50:22.594Z,89
2017-11-27T09:51:23.105Z,88
2017-11-27T09:52:22.628Z,88
2017-11-27T09:53:22.606Z,88
2017-11-27T09:54:22.800Z,88
2017-11-27T09:55:22.814Z,88
2017-11-27T09:56:22.580Z,87
2017-11-27T09:57:22.823Z,87
2017-11-27T09:58:22.557Z,87
2017-11-27T09:59:23.074Z,87
2017-11-27T10:00:22.876Z,87
2017-11-27T10:01:22.686Z,87
2017-11-27T10:02:22.642Z,87
2017-11-27T10:03:22.831Z,87
2017-11-27T10:04:22.845Z,87
2017-11-27T10:05:22.857Z,87
2017-11-27T10:06:22.813Z,86
2017-11-27T10:07:22.665Z,86
2017-11-27T10:08:22.619Z,86
2017-11-27T10:09:22.666Z,86
2017-11-27T10:10:22.847Z,86
2017-11-27T10:11:22.839Z,86
2017-11-27T10:12:22.877Z,86
2017-11-27T10:13:22.943Z,86
2017-11-27T10:14:22.889Z,86
2017-11-27T10:15:22.651Z,86
2017-11-27T10:16:23.157Z,86
2017-11-27T10:17:22.644Z,86
2017-11-27T10:18:22.855Z,86
2017-11-27T10:19:22.869Z,86
2017-11-27T10:20:22.618Z,86
2017-11-27T10:21:22.685Z,86
2017-11-27T10:22:22.878Z,85
2017-11-27T10:23:22.977Z,85
2017-11-27T10:24:23.069Z,85
2017-11-27T10:25:22.685Z,85
2017-11-27T10:26:23.181Z,85
2017-11-27T10:27:22.728Z,85
2017-11-27T10:28:23.117Z,85
2017-11-27T10:29:22.933Z,85
2017-11-27T10:30:22.958Z,85
2017-11-27T10:31:23.191Z,85
2017-11-27T10:32:23.269Z,85
2017-11-27T10:33:22.954Z,85
2017-11-27T10:34:23.036Z,85
2017-11-27T10:35:22.722Z,85
2017-11-27T10:36:22.951Z,85
2017-11-27T10:37:23.217Z,84
2017-11-27T10:38:23.221Z,84
2017-11-27T10:39:23.031Z,85
2017-11-27T10:40:22.759Z,85
2017-11-27T10:41:22.753Z,85
2017-11-27T10:42:23.319Z,85
2017-11-27T10:43:23.279Z,85
2017-11-27T10:44:22.978Z,85
2017-11-27T10:45:22.716Z,85
2017-11-27T10:46:22.727Z,85
2017-11-27T10:47:22.704Z,85
2017-11-27T10:48:22.749Z,85
2017-11-27T10:49:23.272Z,85
2017-11-27T10:50:22.998Z,85
2017-11-27T10:51:22.950Z,85
2017-11-27T10:52:22.755Z,84
2017-11-27T10:53:23.346Z,84
2017-11-27T10:54:27.756Z,84
2017-11-27T10:55:23.408Z,84
2017-11-27T10:56:23.340Z,84
2017-11-27T10:57:22.895Z,84
2017-11-27T10:58:23.048Z,84
2017-11-27T10:59:23.184Z,84
2017-11-27T11:00:22.932Z,84
2017-11-27T11:01:22.998Z,84
2017-11-27T11:02:22.761Z,84
2017-11-27T11:03:23.024Z,84
2017-11-27T11:04:25.127Z,84
2017-11-27T11:05:22.952Z,84
2017-11-27T11:06:22.959Z,84
2017-11-27T11:07:22.970Z,84
2017-11-27T11:08:22.940Z,84
2017-11-27T11:09:23.060Z,84
2017-11-27T11:10:22.765Z,84
2017-11-27T11:11:22.986Z,84
2017-11-27T11:12:23.093Z,83
2017-11-27T11:13:23.007Z,83
2017-11-27T11:14:25.484Z,83
2017-11-27T11:15:23.073Z,83
2017-11-27T11:16:23.006Z,83
2017-11-27T11:17:22.809Z,83
2017-11-27T11:18:22.811Z,84
2017-11-27T11:19:23.000Z,84
2017-11-27T11:20:23.288Z,84
2017-11-27T11:21:23.044Z,84
2017-11-27T11:22:23.233Z,84
2017-11-27T11:23:23.314Z,83
2017-11-27T11:24:22.822Z,83
2017-11-27T11:25:23.040Z,83
2017-11-27T11:26:23.045Z,83
2017-11-27T11:27:23.367Z,83
2017-11-27T11:28:23.095Z,83
2017-11-27T11:29:24.368Z,83
2017-11-27T11:30:22.869Z,83
2017-11-27T11:31:23.327Z,83
2017-11-27T11:32:33.484Z,83
2017-11-27T11:33:23.021Z,83
2017-11-27T11:34:23.321Z,83
2017-11-27T11:35:23.043Z,84
2017-11-27T11:36:23.049Z,84
2017-11-27T11:37:23.379Z,84
2017-11-27T11:38:23.208Z,84
2017-11-27T11:39:23.350Z,84
2017-11-27T11:40:22.849Z,83
2017-11-27T11:41:22.816Z,83
2017-11-27T11:42:22.847Z,83
2017-11-27T11:43:23.017Z,84
2017-11-27T11:44:23.077Z,84
2017-11-27T11:45:23.035Z,84
2017-11-27T11:46:23.094Z,83
2017-11-27T11:47:23.280Z,83
2017-11-27T11:48:22.835Z,83
2017-11-27T11:49:23.302Z,83
2017-11-27T11:50:23.025Z,83
2017-11-27T11:51:23.865Z,83
2017-11-27T11:52:23.063Z,83
2017-11-27T11:53:23.076Z,83
2017-11-27T11:54:23.054Z,83
2017-11-27T11:55:23.083Z,83
2017-11-27T11:56:23.087Z,83
2017-11-27T11:57:22.867Z,83
2017-11-27T11:58:23.092Z,83
2017-11-27T11:59:22.829Z,83
2017-11-27T12:00:23.088Z,83
2017-11-27T12:01:22.867Z,82
2017-11-27T12:02:23.125Z,82
2017-11-27T12:03:22.928Z,82
2017-11-27T12:04:23.481Z,82
2017-11-27T12:05:23.085Z,82
2017-11-27T12:06:23.105Z,82
2017-11-27T12:07:23.181Z,82
2017-11-27T12:08:23.111Z,83
2017-11-27T12:09:23.160Z,83
2017-11-27T12:10:23.405Z,83
2017-11-27T12:11:23.386Z,83
2017-11-27T12:12:23.124Z,83
2017-11-27T12:13:22.916Z,83
2017-11-27T12:14:23.446Z,83
2017-11-27T12:15:23.009Z,83
2017-11-27T12:16:22.874Z,83
2017-11-27T12:17:23.076Z,83
2017-11-27T12:18:23.754Z,83
2017-11-27T12:19:23.168Z,83
2017-11-27T12:20:23.130Z,83
2017-11-27T12:21:23.127Z,83
2017-11-27T12:22:23.122Z,83
2017-11-27T12:23:23.149Z,83
2017-11-27T12:24:23.387Z,84
2017-11-27T12:25:22.918Z,84
2017-11-27T12:26:23.393Z,84
2017-11-27T12:27:23.466Z,84
2017-11-27T12:28:51.610Z,84
2017-11-27T12:29:23.442Z,84
2017-11-27T12:30:23.480Z,84
2017-11-27T12:31:23.134Z,84
2017-11-27T12:32:23.149Z,84
2017-11-27T12:33:23.160Z,84
2017-11-27T12:34:23.067Z,84
2017-11-27T12:35:23.188Z,84
2017-11-27T12:36:22.960Z,85
2017-11-27T12:37:23.178Z,85
2017-11-27T12:38:23.129Z,85
2017-11-27T12:39:22.992Z,85
2017-11-27T12:40:23.152Z,85
2017-11-27T12:41:23.221Z,86
2017-11-27T12:42:23.228Z,86
2017-11-27T12:43:23.142Z,86
2017-11-27T12:44:23.503Z,87
2017-11-27T12:45:29.368Z,87
2017-11-27T12:46:23.190Z,87
2017-11-27T12:47:23.484Z,87
2017-11-27T12:48:23.840Z,87
2017-11-27T12:49:23.181Z,87
2017-11-27T12:50:23.415Z,87
2017-11-27T12:51:23.147Z,87
2017-11-27T12:52:23.182Z,87
2017-11-27T12:53:23.149Z,87
2017-11-27T12:54:23.474Z,87
2017-11-27T12:55:23.201Z,87
2017-11-27T12:56:23.212Z,87
2017-11-27T12:57:23.231Z,87
2017-11-27T12:58:22.886Z,87
2017-11-27T12:59:23.219Z,87
2017-11-27T13:00:23.497Z,87
2017-11-27T13:01:23.490Z,87
2017-11-27T13:02:22.952Z,87
2017-11-27T13:03:23.001Z,87
2017-11-27T13:04:23.299Z,87
2017-11-27T13:05:23.006Z,87
2017-11-27T13:06:23.382Z,87
2017-11-27T13:07:23.480Z,87
2017-11-27T13:08:23.165Z,87
2017-11-27T13:09:23.300Z,87
2017-11-27T13:10:23.224Z,87
2017-11-27T13:11:23.751Z,87
2017-11-27T13:12:23.748Z,87
2017-11-27T13:13:23.396Z,87
2017-11-27T13:14:23.991Z,86
2017-11-27T13:15:23.221Z,86
2017-11-27T13:16:23.196Z,86
2017-11-27T13:17:23.358Z,87
2017-11-27T13:18:23.222Z,87
2017-11-27T13:19:23.088Z,87
2017-11-27T13:20:23.378Z,86
2017-11-27T13:21:23.355Z,86
2017-11-27T13:22:23.374Z,86
2017-11-27T13:23:27.886Z,86
2017-11-27T13:24:23.759Z,86
2017-11-27T13:25:23.239Z,86
2017-11-27T13:26:23.172Z,86
2017-11-27T13:27:23.220Z,86
2017-11-27T13:28:23.519Z,86
2017-11-27T13:29:23.471Z,86
2017-11-27T13:30:24.612Z,85
2017-11-27T13:31:23.628Z,85
2017-11-27T13:32:23.586Z,85
2017-11-27T13:33:23.319Z,85
2017-11-27T13:34:23.223Z,85
2017-11-27T13:35:23.185Z,85
2017-11-27T13:36:23.513Z,85
2017-11-27T13:37:23.378Z,85
2017-11-27T13:38:23.078Z,85
2017-11-27T13:39:23.203Z,85
2017-11-27T13:40:24.388Z,84
2017-11-27T13:41:23.974Z,84
2017-11-27T13:42:24.039Z,84
2017-11-27T13:43:23.853Z,84
2017-11-27T13:44:23.738Z,84
2017-11-27T13:45:24.982Z,84
2017-11-27T13:46:23.479Z,84
2017-11-27T13:47:23.316Z,84
2017-11-27T13:48:23.300Z,84
2017-11-27T13:49:23.279Z,84
2017-11-27T13:50:23.053Z,84
2017-11-27T13:51:23.455Z,84
2017-11-27T13:52:23.302Z,84
2017-11-27T13:53:23.280Z,84
2017-11-27T13:54:23.643Z,84
2017-11-27T13:55:23.608Z,84
2017-11-27T13:56:23.350Z,84
2017-11-27T13:57:23.614Z,84
2017-11-27T13:58:23.303Z,84
2017-11-27T13:59:23.333Z,84
2017-11-27T14:00:23.610Z,84
2017-11-27T14:01:23.323Z,84
2017-11-27T14:02:23.820Z,84
2017-11-27T14:03:23.384Z,84
2017-11-27T14:04:23.120Z,84
2017-11-27T14:05:23.314Z,84
2017-11-27T14:06:23.293Z,84
2017-11-27T14:07:23.807Z,84
2017-11-27T14:08:23.580Z,84
2017-11-27T14:09:23.282Z,84
2017-11-27T14:10:24.195Z,84
2017-11-27T14:11:23.628Z,84
2017-11-27T14:12:23.337Z,84
2017-11-27T14:13:23.343Z,84
2017-11-27T14:14:23.624Z,84
2017-11-27T14:15:23.602Z,85
2017-11-27T14:16:23.183Z,85
2017-11-27T14:17:23.346Z,85
2017-11-27T14:18:23.592Z,85
2017-11-27T14:19:23.374Z,85
2017-11-27T14:20:23.324Z,85
2017-11-27T14:21:23.322Z,85